Impacts METAR Board INFO
IDs:

KMDW - Chicago/Midway Intl, IL, US

Updated at: 1457 UTC 13 Dec 2017
Potential Impact None Slight Moderate High
Time13/02Z 13/03Z 13/04Z 13/05Z 13/06Z 13/07Z 13/08Z 13/09Z 13/10Z 13/11Z 13/12Z 13/13Z 13/14Z
VIS10 10 10 10 10 10 10 10 10 10 10 10 10
CIG-- 90 50 85 60 39 32 32 80 42 75 85 85
CoverSCTBKNOVCOVCOVCOVCOVCOVCOVCOVCOVCOVCOVC
FltCatVFRVFRVFRVFRVFRVFRVFRVFRVFRVFRVFRVFRVFR
WX--------------------------
WDir280280280260230190180180170170170170170
WSpd10 6 5 7 5 5 7 8 9 11 10 10 13
WGst-- -- -- -- -- -- -- -- -- -- -- -- 20
Raw hourly METARs
KMDW 130153Z 28010KT 10SM SCT075 SCT150 M07/M13 A3001 RMK AO2 SLP181 T10721128
KMDW 130253Z 28006KT 10SM BKN090 M07/M13 A2999 RMK AO2 SLP173 T10671128 58012
KMDW 130353Z 28005KT 10SM BKN050 OVC080 M06/M13 A2999 RMK AO2 SLP174 T10611128
KMDW 130453Z 26007KT 10SM SCT048 OVC085 M06/M14 A2996 RMK AO2 SLP163 T10561139
KMDW 130553Z 23005KT 10SM OVC060 M06/M13 A2992 RMK AO2 SLP149 T10561133 11056 21072 400001078 58023
KMDW 130653Z 19005KT 10SM OVC039 M06/M13 A2989 RMK AO2 SLP136 T10561128
KMDW 130753Z 18007KT 10SM OVC032 M05/M12 A2986 RMK AO2 SLP128 T10501122
KMDW 130853Z 18008KT 10SM OVC032 M05/M12 A2983 RMK AO2 SLP116 T10501117 56032
KMDW 130953Z 17009KT 10SM OVC080 M04/M12 A2978 RMK AO2 SLP100 T10441117
KMDW 131053Z 17011KT 10SM BKN042 OVC080 M04/M12 A2974 RMK AO2 SLP087 T10391117
KMDW 131153Z 17010KT 10SM FEW037 BKN075 OVC095 M03/M12 A2970 RMK AO2 SLP073 T10331117 11033 21056 56042
KMDW 131253Z 17010KT 10SM BKN085 OVC110 M03/M12 A2965 RMK AO2 SLP056 T10281117
KMDW 131353Z 17013G20KT 10SM BKN085 OVC110 M02/M11 A2958 RMK AO2 SLP031 T10221111